sensor_id;sensor_type;location;lat;lon;timestamp;temperature;humidity
74488;DHT22;63019;51.080;13.642;2023-04-03T00:00:44;2.90;99.90
74488;DHT22;63019;51.080;13.642;2023-04-03T00:01:47;2.90;99.90
74488;DHT22;63019;51.080;13.642;2023-04-03T00:02:49;2.90;99.90
74488;DHT22;63019;51.080;13.642;2023-04-03T00:03:51;2.90;99.90
74488;DHT22;63019;51.080;13.642;2023-04-03T00:04:54;2.90;99.90
74488;DHT22;63019;51.080;13.642;2023-04-03T00:05:56;2.80;99.90
74488;DHT22;63019;51.080;13.642;2023-04-03T00:06:59;2.80;99.90
74488;DHT22;63019;51.080;13.642;2023-04-03T00:08:01;2.80;99.90
74488;DHT22;63019;51.080;13.642;2023-04-03T00:09:03;2.80;99.90
74488;DHT22;63019;51.080;13.642;2023-04-03T00:10:06;2.80;99.90
74488;DHT22;63019;51.080;13.642;2023-04-03T00:11:09;2.80;99.90
74488;DHT22;63019;51.080;13.642;2023-04-03T00:12:11;2.80;99.90
74488;DHT22;63019;51.080;13.642;2023-04-03T00:13:13;2.80;99.90
74488;DHT22;63019;51.080;13.642;2023-04-03T00:14:16;2.80;99.90
74488;DHT22;63019;51.080;13.642;2023-04-03T00:15:18;2.80;99.90
74488;DHT22;63019;51.080;13.642;2023-04-03T00:16:20;2.80;99.90
74488;DHT22;63019;51.080;13.642;2023-04-03T00:17:22;2.80;99.90
74488;DHT22;63019;51.080;13.642;2023-04-03T00:18:25;2.80;99.90
74488;DHT22;63019;51.080;13.642;2023-04-03T00:19:27;2.80;99.90
74488;DHT22;63019;51.080;13.642;2023-04-03T00:20:29;2.80;99.90
74488;DHT22;63019;51.080;13.642;2023-04-03T00:21:31;2.80;99.90
74488;DHT22;63019;51.080;13.642;2023-04-03T00:22:34;2.80;99.90
74488;DHT22;63019;51.080;13.642;2023-04-03T00:23:36;2.80;99.90
74488;DHT22;63019;51.080;13.642;2023-04-03T00:24:38;2.80;99.90
74488;DHT22;63019;51.080;13.642;2023-04-03T00:25:40;2.80;99.90
74488;DHT22;63019;51.080;13.642;2023-04-03T00:26:42;2.80;99.90
74488;DHT22;63019;51.080;13.642;2023-04-03T00:27:44;2.80;99.90
74488;DHT22;63019;51.080;13.642;2023-04-03T00:28:45;2.80;99.90
74488;DHT22;63019;51.080;13.642;2023-04-03T00:29:47;2.80;99.90
74488;DHT22;63019;51.080;13.642;2023-04-03T00:30:50;2.70;99.90
74488;DHT22;63019;51.080;13.642;2023-04-03T00:31:52;2.70;99.90
74488;DHT22;63019;51.080;13.642;2023-04-03T00:32:54;2.70;99.90
74488;DHT22;63019;51.080;13.642;2023-04-03T00:34:05;2.70;99.90
74488;DHT22;63019;51.080;13.642;2023-04-03T00:35:08;2.70;99.90
74488;DHT22;63019;51.080;13.642;2023-04-03T00:36:10;2.80;99.90
74488;DHT22;63019;51.080;13.642;2023-04-03T00:37:12;2.70;99.90
74488;DHT22;63019;51.080;13.642;2023-04-03T00:38:15;2.70;99.90
74488;DHT22;63019;51.080;13.642;2023-04-03T00:39:17;2.70;99.90
74488;DHT22;63019;51.080;13.642;2023-04-03T00:40:19;2.70;99.90
74488;DHT22;63019;51.080;13.642;2023-04-03T00:41:21;2.70;99.90
74488;DHT22;63019;51.080;13.642;2023-04-03T00:42:23;2.70;99.90
74488;DHT22;63019;51.080;13.642;2023-04-03T00:43:25;2.70;99.90
74488;DHT22;63019;51.080;13.642;2023-04-03T00:45:43;2.70;99.90
74488;DHT22;63019;51.080;13.642;2023-04-03T00:46:45;2.70;99.90
74488;DHT22;63019;51.080;13.642;2023-04-03T00:47:46;2.70;99.90
74488;DHT22;63019;51.080;13.642;2023-04-03T00:48:49;2.70;99.90
74488;DHT22;63019;51.080;13.642;2023-04-03T00:49:51;2.60;99.90
74488;DHT22;63019;51.080;13.642;2023-04-03T00:50:54;2.60;99.90
74488;DHT22;63019;51.080;13.642;2023-04-03T00:51:58;2.60;99.90
74488;DHT22;63019;51.080;13.642;2023-04-03T00:53:00;2.60;99.90
74488;DHT22;63019;51.080;13.642;2023-04-03T00:54:05;2.60;99.90
74488;DHT22;63019;51.080;13.642;2023-04-03T00:55:08;2.60;99.90
74488;DHT22;63019;51.080;13.642;2023-04-03T00:56:13;2.60;99.90
74488;DHT22;63019;51.080;13.642;2023-04-03T00:57:16;2.60;99.90
74488;DHT22;63019;51.080;13.642;2023-04-03T00:58:20;2.60;99.90
74488;DHT22;63019;51.080;13.642;2023-04-03T00:59:25;2.60;99.90
74488;DHT22;63019;51.080;13.642;2023-04-03T01:00:28;2.60;99.90
74488;DHT22;63019;51.080;13.642;2023-04-03T01:01:30;2.60;99.90
74488;DHT22;63019;51.080;13.642;2023-04-03T01:02:33;2.50;99.90
74488;DHT22;63019;51.080;13.642;2023-04-03T01:03:35;2.50;99.90
74488;DHT22;63019;51.080;13.642;2023-04-03T01:04:39;2.50;99.90
74488;DHT22;63019;51.080;13.642;2023-04-03T01:05:42;2.50;99.90
74488;DHT22;63019;51.080;13.642;2023-04-03T01:06:44;2.50;99.90
74488;DHT22;63019;51.080;13.642;2023-04-03T01:07:47;2.50;99.90
74488;DHT22;63019;51.080;13.642;2023-04-03T01:08:50;2.50;99.90
74488;DHT22;63019;51.080;13.642;2023-04-03T01:09:56;2.50;99.90
74488;DHT22;63019;51.080;13.642;2023-04-03T01:10:58;2.40;99.90
74488;DHT22;63019;51.080;13.642;2023-04-03T01:12:18;2.40;99.90
74488;DHT22;63019;51.080;13.642;2023-04-03T01:13:31;2.40;99.90
74488;DHT22;63019;51.080;13.642;2023-04-03T01:14:33;2.40;99.90
74488;DHT22;63019;51.080;13.642;2023-04-03T01:15:35;2.30;99.90
74488;DHT22;63019;51.080;13.642;2023-04-03T01:16:36;2.30;99.90
74488;DHT22;63019;51.080;13.642;2023-04-03T01:18:01;2.30;99.90
74488;DHT22;63019;51.080;13.642;2023-04-03T01:19:03;2.30;99.90
74488;DHT22;63019;51.080;13.642;2023-04-03T01:22:10;2.30;99.90
74488;DHT22;63019;51.080;13.642;2023-04-03T01:23:47;2.30;99.90
74488;DHT22;63019;51.080;13.642;2023-04-03T01:24:51;2.20;99.90
74488;DHT22;63019;51.080;13.642;2023-04-03T01:25:56;2.30;99.90
74488;DHT22;63019;51.080;13.642;2023-04-03T01:26:59;2.30;99.90
74488;DHT22;63019;51.080;13.642;2023-04-03T01:28:03;2.20;99.90
74488;DHT22;63019;51.080;13.642;2023-04-03T01:29:06;2.30;99.90
74488;DHT22;63019;51.080;13.642;2023-04-03T01:30:08;2.20;99.90
74488;DHT22;63019;51.080;13.642;2023-04-03T01:31:21;2.20;99.90
74488;DHT22;63019;51.080;13.642;2023-04-03T01:32:23;2.20;99.90
74488;DHT22;63019;51.080;13.642;2023-04-03T01:33:25;2.20;99.90
74488;DHT22;63019;51.080;13.642;2023-04-03T01:34:28;2.20;99.90
74488;DHT22;63019;51.080;13.642;2023-04-03T01:35:30;2.10;99.90
74488;DHT22;63019;51.080;13.642;2023-04-03T01:36:31;2.10;99.90
74488;DHT22;63019;51.080;13.642;2023-04-03T01:37:33;2.10;99.90
74488;DHT22;63019;51.080;13.642;2023-04-03T01:38:35;2.10;99.90
74488;DHT22;63019;51.080;13.642;2023-04-03T01:39:37;2.00;99.90
74488;DHT22;63019;51.080;13.642;2023-04-03T01:40:39;2.00;99.90
74488;DHT22;63019;51.080;13.642;2023-04-03T01:41:41;2.00;99.90
74488;DHT22;63019;51.080;13.642;2023-04-03T01:42:43;2.00;99.90
74488;DHT22;63019;51.080;13.642;2023-04-03T01:43:44;2.00;99.90
74488;DHT22;63019;51.080;13.642;2023-04-03T01:44:46;2.00;99.90
74488;DHT22;63019;51.080;13.642;2023-04-03T01:45:48;2.00;99.90
74488;DHT22;63019;51.080;13.642;2023-04-03T01:46:55;2.00;99.90
74488;DHT22;63019;51.080;13.642;2023-04-03T01:47:57;2.00;99.90
74488;DHT22;63019;51.080;13.642;2023-04-03T01:48:59;2.00;99.90
74488;DHT22;63019;51.080;13.642;2023-04-03T01:50:01;1.90;99.90
74488;DHT22;63019;51.080;13.642;2023-04-03T01:51:03;1.90;99.90
74488;DHT22;63019;51.080;13.642;2023-04-03T01:52:05;1.90;99.90
74488;DHT22;63019;51.080;13.642;2023-04-03T01:53:08;1.90;99.90
74488;DHT22;63019;51.080;13.642;2023-04-03T01:54:10;1.90;99.90
74488;DHT22;63019;51.080;13.642;2023-04-03T01:55:11;1.90;99.90
74488;DHT22;63019;51.080;13.642;2023-04-03T01:56:13;1.80;99.90
74488;DHT22;63019;51.080;13.642;2023-04-03T01:57:16;1.80;99.90
74488;DHT22;63019;51.080;13.642;2023-04-03T01:58:18;1.80;99.90
74488;DHT22;63019;51.080;13.642;2023-04-03T01:59:20;1.80;99.90
74488;DHT22;63019;51.080;13.642;2023-04-03T02:00:21;1.80;99.90
74488;DHT22;63019;51.080;13.642;2023-04-03T02:01:23;1.70;99.90
74488;DHT22;63019;51.080;13.642;2023-04-03T02:02:27;1.70;99.90
74488;DHT22;63019;51.080;13.642;2023-04-03T02:03:29;1.70;99.90
74488;DHT22;63019;51.080;13.642;2023-04-03T02:04:31;1.70;99.90
74488;DHT22;63019;51.080;13.642;2023-04-03T02:05:33;1.70;99.90
74488;DHT22;63019;51.080;13.642;2023-04-03T02:06:34;1.70;99.90
74488;DHT22;63019;51.080;13.642;2023-04-03T02:07:36;1.70;99.90
74488;DHT22;63019;51.080;13.642;2023-04-03T02:08:38;1.70;99.90
74488;DHT22;63019;51.080;13.642;2023-04-03T02:09:40;1.60;99.90
74488;DHT22;63019;51.080;13.642;2023-04-03T02:10:42;1.60;99.90
74488;DHT22;63019;51.080;13.642;2023-04-03T02:11:43;1.60;99.90
74488;DHT22;63019;51.080;13.642;2023-04-03T02:12:45;1.60;99.90
74488;DHT22;63019;51.080;13.642;2023-04-03T02:13:47;1.60;99.90
74488;DHT22;63019;51.080;13.642;2023-04-03T02:14:49;1.60;99.90
74488;DHT22;63019;51.080;13.642;2023-04-03T02:15:51;1.50;99.90
74488;DHT22;63019;51.080;13.642;2023-04-03T02:16:53;1.50;99.90
74488;DHT22;63019;51.080;13.642;2023-04-03T02:17:55;1.50;99.90
74488;DHT22;63019;51.080;13.642;2023-04-03T02:18:56;1.60;99.90
74488;DHT22;63019;51.080;13.642;2023-04-03T02:19:58;1.60;99.90
74488;DHT22;63019;51.080;13.642;2023-04-03T02:21:00;1.60;99.90
74488;DHT22;63019;51.080;13.642;2023-04-03T02:22:05;1.50;99.90
74488;DHT22;63019;51.080;13.642;2023-04-03T02:23:07;1.50;99.90
74488;DHT22;63019;51.080;13.642;2023-04-03T02:24:08;1.40;99.90
74488;DHT22;63019;51.080;13.642;2023-04-03T02:25:10;1.40;99.90
74488;DHT22;63019;51.080;13.642;2023-04-03T02:26:14;1.40;99.90
74488;DHT22;63019;51.080;13.642;2023-04-03T02:27:16;1.40;99.90
74488;DHT22;63019;51.080;13.642;2023-04-03T02:28:18;1.40;99.90
74488;DHT22;63019;51.080;13.642;2023-04-03T02:29:20;1.40;99.90
74488;DHT22;63019;51.080;13.642;2023-04-03T02:30:22;1.40;99.90
74488;DHT22;63019;51.080;13.642;2023-04-03T02:31:24;1.40;99.90
74488;DHT22;63019;51.080;13.642;2023-04-03T02:32:26;1.30;99.90
74488;DHT22;63019;51.080;13.642;2023-04-03T02:33:28;1.30;99.90
74488;DHT22;63019;51.080;13.642;2023-04-03T02:34:29;1.30;99.90
74488;DHT22;63019;51.080;13.642;2023-04-03T02:35:31;1.20;99.90
74488;DHT22;63019;51.080;13.642;2023-04-03T02:36:33;1.20;99.90
74488;DHT22;63019;51.080;13.642;2023-04-03T02:37:36;1.20;99.90
74488;DHT22;63019;51.080;13.642;2023-04-03T02:38:37;1.20;99.90
74488;DHT22;63019;51.080;13.642;2023-04-03T02:39:39;1.20;99.90
74488;DHT22;63019;51.080;13.642;2023-04-03T02:40:41;1.10;99.90
74488;DHT22;63019;51.080;13.642;2023-04-03T02:41:43;1.20;99.90
74488;DHT22;63019;51.080;13.642;2023-04-03T02:42:44;1.10;99.90
74488;DHT22;63019;51.080;13.642;2023-04-03T02:43:46;1.10;99.90
74488;DHT22;63019;51.080;13.642;2023-04-03T02:44:48;1.10;99.90
74488;DHT22;63019;51.080;13.642;2023-04-03T02:45:50;1.10;99.90
74488;DHT22;63019;51.080;13.642;2023-04-03T02:46:52;1.10;99.90
74488;DHT22;63019;51.080;13.642;2023-04-03T02:47:53;1.10;99.90
74488;DHT22;63019;51.080;13.642;2023-04-03T02:48:55;1.10;99.90
74488;DHT22;63019;51.080;13.642;2023-04-03T02:49:57;1.00;99.90
74488;DHT22;63019;51.080;13.642;2023-04-03T02:50:59;1.00;99.90
74488;DHT22;63019;51.080;13.642;2023-04-03T02:52:01;1.00;99.90
74488;DHT22;63019;51.080;13.642;2023-04-03T02:53:02;1.00;99.90
74488;DHT22;63019;51.080;13.642;2023-04-03T02:54:04;1.00;99.90
74488;DHT22;63019;51.080;13.642;2023-04-03T02:55:07;0.90;99.90
74488;DHT22;63019;51.080;13.642;2023-04-03T02:56:08;0.90;99.90
74488;DHT22;63019;51.080;13.642;2023-04-03T02:57:10;0.90;99.90
74488;DHT22;63019;51.080;13.642;2023-04-03T02:58:12;0.90;99.90
74488;DHT22;63019;51.080;13.642;2023-04-03T02:59:14;0.90;99.90
74488;DHT22;63019;51.080;13.642;2023-04-03T03:00:16;0.90;99.90
74488;DHT22;63019;51.080;13.642;2023-04-03T03:01:18;0.90;99.90
74488;DHT22;63019;51.080;13.642;2023-04-03T03:02:20;0.90;99.90
74488;DHT22;63019;51.080;13.642;2023-04-03T03:03:22;0.90;99.90
74488;DHT22;63019;51.080;13.642;2023-04-03T03:04:24;0.80;99.90
74488;DHT22;63019;51.080;13.642;2023-04-03T03:05:27;0.80;99.90
74488;DHT22;63019;51.080;13.642;2023-04-03T03:06:29;0.80;99.90
74488;DHT22;63019;51.080;13.642;2023-04-03T03:07:31;0.80;99.90
74488;DHT22;63019;51.080;13.642;2023-04-03T03:08:33;0.80;99.90
74488;DHT22;63019;51.080;13.642;2023-04-03T03:09:35;0.80;99.90
74488;DHT22;63019;51.080;13.642;2023-04-03T03:10:36;0.80;99.90
74488;DHT22;63019;51.080;13.642;2023-04-03T03:11:39;0.80;99.90
74488;DHT22;63019;51.080;13.642;2023-04-03T03:12:41;0.70;99.90
74488;DHT22;63019;51.080;13.642;2023-04-03T03:13:44;0.70;99.90
74488;DHT22;63019;51.080;13.642;2023-04-03T03:14:47;0.70;99.90
74488;DHT22;63019;51.080;13.642;2023-04-03T03:15:49;0.70;99.90
74488;DHT22;63019;51.080;13.642;2023-04-03T03:16:51;0.70;99.90
74488;DHT22;63019;51.080;13.642;2023-04-03T03:17:53;0.70;99.90
74488;DHT22;63019;51.080;13.642;2023-04-03T03:18:55;0.70;99.90
74488;DHT22;63019;51.080;13.642;2023-04-03T03:19:58;0.70;99.90
74488;DHT22;63019;51.080;13.642;2023-04-03T03:21:01;0.70;99.90
74488;DHT22;63019;51.080;13.642;2023-04-03T03:22:03;0.70;99.90
74488;DHT22;63019;51.080;13.642;2023-04-03T03:23:05;0.60;99.90
74488;DHT22;63019;51.080;13.642;2023-04-03T03:24:07;0.60;99.90
74488;DHT22;63019;51.080;13.642;2023-04-03T03:25:09;0.60;99.90
74488;DHT22;63019;51.080;13.642;2023-04-03T03:26:11;0.60;99.90
74488;DHT22;63019;51.080;13.642;2023-04-03T03:27:13;0.50;99.90
74488;DHT22;63019;51.080;13.642;2023-04-03T03:28:15;0.50;99.90
74488;DHT22;63019;51.080;13.642;2023-04-03T03:29:17;0.50;99.90
74488;DHT22;63019;51.080;13.642;2023-04-03T03:30:18;0.40;99.90
74488;DHT22;63019;51.080;13.642;2023-04-03T03:31:20;0.40;99.90
74488;DHT22;63019;51.080;13.642;2023-04-03T03:32:22;0.40;99.90
74488;DHT22;63019;51.080;13.642;2023-04-03T03:33:24;0.40;99.90
74488;DHT22;63019;51.080;13.642;2023-04-03T03:34:26;0.30;99.90
74488;DHT22;63019;51.080;13.642;2023-04-03T03:35:28;0.30;99.90
74488;DHT22;63019;51.080;13.642;2023-04-03T03:36:30;0.30;99.90
74488;DHT22;63019;51.080;13.642;2023-04-03T03:37:32;0.30;99.90
74488;DHT22;63019;51.080;13.642;2023-04-03T03:38:34;0.30;99.90
74488;DHT22;63019;51.080;13.642;2023-04-03T03:39:35;0.30;99.90
74488;DHT22;63019;51.080;13.642;2023-04-03T03:40:37;0.30;99.90
74488;DHT22;63019;51.080;13.642;2023-04-03T03:41:39;0.30;99.90
74488;DHT22;63019;51.080;13.642;2023-04-03T03:42:41;0.20;99.90
74488;DHT22;63019;51.080;13.642;2023-04-03T03:43:43;0.20;99.90
74488;DHT22;63019;51.080;13.642;2023-04-03T03:44:44;0.20;99.90
74488;DHT22;63019;51.080;13.642;2023-04-03T03:45:50;0.20;99.90
74488;DHT22;63019;51.080;13.642;2023-04-03T03:46:53;0.20;99.90
74488;DHT22;63019;51.080;13.642;2023-04-03T03:47:55;0.10;99.90
74488;DHT22;63019;51.080;13.642;2023-04-03T03:48:56;0.20;99.90
74488;DHT22;63019;51.080;13.642;2023-04-03T03:49:59;0.20;99.90
74488;DHT22;63019;51.080;13.642;2023-04-03T03:51:00;0.20;99.90
74488;DHT22;63019;51.080;13.642;2023-04-03T03:52:02;0.20;99.90
74488;DHT22;63019;51.080;13.642;2023-04-03T03:53:04;0.20;99.90
74488;DHT22;63019;51.080;13.642;2023-04-03T03:54:07;0.10;99.90
74488;DHT22;63019;51.080;13.642;2023-04-03T03:55:08;0.10;99.90
74488;DHT22;63019;51.080;13.642;2023-04-03T03:56:10;0.10;99.90
74488;DHT22;63019;51.080;13.642;2023-04-03T03:57:12;0.10;99.90
74488;DHT22;63019;51.080;13.642;2023-04-03T03:58:14;0.10;99.90
74488;DHT22;63019;51.080;13.642;2023-04-03T03:59:16;0.10;99.90
74488;DHT22;63019;51.080;13.642;2023-04-03T04:00:18;0.00;99.90
74488;DHT22;63019;51.080;13.642;2023-04-03T04:01:20;0.10;99.90
74488;DHT22;63019;51.080;13.642;2023-04-03T04:02:22;0.00;99.90
74488;DHT22;63019;51.080;13.642;2023-04-03T04:03:24;0.00;99.90
74488;DHT22;63019;51.080;13.642;2023-04-03T04:04:26;-0.10;99.90
74488;DHT22;63019;51.080;13.642;2023-04-03T04:05:28;-0.10;99.90
74488;DHT22;63019;51.080;13.642;2023-04-03T04:06:29;-0.10;99.90
74488;DHT22;63019;51.080;13.642;2023-04-03T04:07:31;-0.10;99.90
74488;DHT22;63019;51.080;13.642;2023-04-03T04:08:33;-0.10;99.90
74488;DHT22;63019;51.080;13.642;2023-04-03T04:09:35;-0.10;99.90
74488;DHT22;63019;51.080;13.642;2023-04-03T04:10:37;-0.20;99.90
74488;DHT22;63019;51.080;13.642;2023-04-03T04:11:39;-0.20;99.90
74488;DHT22;63019;51.080;13.642;2023-04-03T04:12:42;-0.20;99.90
74488;DHT22;63019;51.080;13.642;2023-04-03T04:13:43;-0.20;99.90
74488;DHT22;63019;51.080;13.642;2023-04-03T04:14:46;-0.20;99.90
74488;DHT22;63019;51.080;13.642;2023-04-03T04:15:48;-0.20;99.90
74488;DHT22;63019;51.080;13.642;2023-04-03T04:16:50;-0.30;99.90
74488;DHT22;63019;51.080;13.642;2023-04-03T04:17:52;-0.30;99.90
74488;DHT22;63019;51.080;13.642;2023-04-03T04:18:54;-0.30;99.90
74488;DHT22;63019;51.080;13.642;2023-04-03T04:19:56;-0.30;99.90
74488;DHT22;63019;51.080;13.642;2023-04-03T04:20:58;-0.30;99.90
74488;DHT22;63019;51.080;13.642;2023-04-03T04:22:00;-0.30;99.90
74488;DHT22;63019;51.080;13.642;2023-04-03T04:23:02;-0.40;99.90
74488;DHT22;63019;51.080;13.642;2023-04-03T04:24:04;-0.40;99.90
74488;DHT22;63019;51.080;13.642;2023-04-03T04:25:06;-0.30;99.90
74488;DHT22;63019;51.080;13.642;2023-04-03T04:26:08;-0.40;99.90
74488;DHT22;63019;51.080;13.642;2023-04-03T04:27:10;-0.40;99.90
74488;DHT22;63019;51.080;13.642;2023-04-03T04:28:12;-0.40;99.90
74488;DHT22;63019;51.080;13.642;2023-04-03T04:29:14;-0.30;99.90
74488;DHT22;63019;51.080;13.642;2023-04-03T04:30:16;-0.40;99.90
74488;DHT22;63019;51.080;13.642;2023-04-03T04:31:17;-0.30;99.90
74488;DHT22;63019;51.080;13.642;2023-04-03T04:32:19;-0.40;99.90
74488;DHT22;63019;51.080;13.642;2023-04-03T04:33:21;-0.30;99.90
74488;DHT22;63019;51.080;13.642;2023-04-03T04:34:23;-0.30;99.90
74488;DHT22;63019;51.080;13.642;2023-04-03T04:35:25;-0.30;99.90
74488;DHT22;63019;51.080;13.642;2023-04-03T04:36:27;-0.40;99.90
74488;DHT22;63019;51.080;13.642;2023-04-03T04:37:29;-0.40;99.90
74488;DHT22;63019;51.080;13.642;2023-04-03T04:38:31;-0.40;99.90
74488;DHT22;63019;51.080;13.642;2023-04-03T04:39:32;-0.40;99.90
74488;DHT22;63019;51.080;13.642;2023-04-03T04:40:34;-0.40;99.90
74488;DHT22;63019;51.080;13.642;2023-04-03T04:41:36;-0.40;99.90
74488;DHT22;63019;51.080;13.642;2023-04-03T04:42:38;-0.40;99.90
74488;DHT22;63019;51.080;13.642;2023-04-03T04:43:40;-0.50;99.90
74488;DHT22;63019;51.080;13.642;2023-04-03T04:44:42;-0.50;99.90
74488;DHT22;63019;51.080;13.642;2023-04-03T04:45:44;-0.50;99.90
74488;DHT22;63019;51.080;13.642;2023-04-03T04:46:46;-0.40;99.90
74488;DHT22;63019;51.080;13.642;2023-04-03T04:47:48;-0.40;99.90
74488;DHT22;63019;51.080;13.642;2023-04-03T04:48:51;-0.50;99.90
74488;DHT22;63019;51.080;13.642;2023-04-03T04:49:53;-0.50;99.90
74488;DHT22;63019;51.080;13.642;2023-04-03T04:50:54;-0.50;99.90
74488;DHT22;63019;51.080;13.642;2023-04-03T04:51:56;-0.50;99.90
74488;DHT22;63019;51.080;13.642;2023-04-03T04:52:58;-0.50;99.90
74488;DHT22;63019;51.080;13.642;2023-04-03T04:54:00;-0.50;99.90
74488;DHT22;63019;51.080;13.642;2023-04-03T04:55:02;-0.60;99.90
74488;DHT22;63019;51.080;13.642;2023-04-03T04:56:04;-0.50;99.90
74488;DHT22;63019;51.080;13.642;2023-04-03T04:57:06;-0.60;99.90
74488;DHT22;63019;51.080;13.642;2023-04-03T04:58:08;-0.50;99.90
74488;DHT22;63019;51.080;13.642;2023-04-03T04:59:09;-0.50;99.90
74488;DHT22;63019;51.080;13.642;2023-04-03T05:00:12;-0.50;99.90
74488;DHT22;63019;51.080;13.642;2023-04-03T05:01:14;-0.60;99.90
74488;DHT22;63019;51.080;13.642;2023-04-03T05:02:16;-0.60;99.90
74488;DHT22;63019;51.080;13.642;2023-04-03T05:03:18;-0.60;99.90
74488;DHT22;63019;51.080;13.642;2023-04-03T05:04:20;-0.60;99.90
74488;DHT22;63019;51.080;13.642;2023-04-03T05:05:22;-0.60;99.90
74488;DHT22;63019;51.080;13.642;2023-04-03T05:06:24;-0.60;99.90
74488;DHT22;63019;51.080;13.642;2023-04-03T05:07:26;-0.50;99.90
74488;DHT22;63019;51.080;13.642;2023-04-03T05:08:28;-0.50;99.90
74488;DHT22;63019;51.080;13.642;2023-04-03T05:09:30;-0.50;99.90
74488;DHT22;63019;51.080;13.642;2023-04-03T05:10:32;-0.50;99.90
74488;DHT22;63019;51.080;13.642;2023-04-03T05:11:34;-0.60;99.90
74488;DHT22;63019;51.080;13.642;2023-04-03T05:12:36;-0.50;99.90
74488;DHT22;63019;51.080;13.642;2023-04-03T05:13:38;-0.50;99.90
74488;DHT22;63019;51.080;13.642;2023-04-03T05:14:39;-0.50;99.90
74488;DHT22;63019;51.080;13.642;2023-04-03T05:15:41;-0.50;99.90
74488;DHT22;63019;51.080;13.642;2023-04-03T05:16:43;-0.50;99.90
74488;DHT22;63019;51.080;13.642;2023-04-03T05:17:45;-0.50;99.90
74488;DHT22;63019;51.080;13.642;2023-04-03T05:18:47;-0.40;99.90
74488;DHT22;63019;51.080;13.642;2023-04-03T05:19:48;-0.40;99.90
74488;DHT22;63019;51.080;13.642;2023-04-03T05:20:50;-0.40;99.90
74488;DHT22;63019;51.080;13.642;2023-04-03T05:21:52;-0.40;99.90
74488;DHT22;63019;51.080;13.642;2023-04-03T05:22:54;-0.40;99.90
74488;DHT22;63019;51.080;13.642;2023-04-03T05:23:56;-0.40;99.90
74488;DHT22;63019;51.080;13.642;2023-04-03T05:24:57;-0.40;99.90
74488;DHT22;63019;51.080;13.642;2023-04-03T05:25:59;-0.30;99.90
74488;DHT22;63019;51.080;13.642;2023-04-03T05:27:01;-0.30;99.90
74488;DHT22;63019;51.080;13.642;2023-04-03T05:28:03;-0.30;99.90
74488;DHT22;63019;51.080;13.642;2023-04-03T05:29:05;-0.40;99.90
74488;DHT22;63019;51.080;13.642;2023-04-03T05:30:07;-0.30;99.90
74488;DHT22;63019;51.080;13.642;2023-04-03T05:31:09;-0.30;99.90
74488;DHT22;63019;51.080;13.642;2023-04-03T05:32:11;-0.30;99.90
74488;DHT22;63019;51.080;13.642;2023-04-03T05:33:13;-0.20;99.90
74488;DHT22;63019;51.080;13.642;2023-04-03T05:34:15;-0.20;99.90
74488;DHT22;63019;51.080;13.642;2023-04-03T05:35:17;-0.20;99.90
74488;DHT22;63019;51.080;13.642;2023-04-03T05:36:19;-0.20;99.90
74488;DHT22;63019;51.080;13.642;2023-04-03T05:37:21;-0.20;99.90
74488;DHT22;63019;51.080;13.642;2023-04-03T05:38:23;-0.20;99.90
74488;DHT22;63019;51.080;13.642;2023-04-03T05:39:25;-0.20;99.90
74488;DHT22;63019;51.080;13.642;2023-04-03T05:40:27;-0.20;99.90
74488;DHT22;63019;51.080;13.642;2023-04-03T05:41:28;-0.20;99.90
74488;DHT22;63019;51.080;13.642;2023-04-03T05:42:31;-0.20;99.90
74488;DHT22;63019;51.080;13.642;2023-04-03T05:43:33;-0.20;99.90
74488;DHT22;63019;51.080;13.642;2023-04-03T05:44:36;-0.10;99.90
74488;DHT22;63019;51.080;13.642;2023-04-03T05:45:37;-0.10;99.90
74488;DHT22;63019;51.080;13.642;2023-04-03T05:46:39;-0.10;99.90
74488;DHT22;63019;51.080;13.642;2023-04-03T05:47:41;0.00;99.90
74488;DHT22;63019;51.080;13.642;2023-04-03T05:48:43;-0.10;99.90
74488;DHT22;63019;51.080;13.642;2023-04-03T05:49:45;0.00;99.90
74488;DHT22;63019;51.080;13.642;2023-04-03T05:50:47;0.00;99.90
74488;DHT22;63019;51.080;13.642;2023-04-03T05:51:49;0.00;99.90
74488;DHT22;63019;51.080;13.642;2023-04-03T05:52:55;0.00;99.90
74488;DHT22;63019;51.080;13.642;2023-04-03T05:54:09;0.00;99.90
74488;DHT22;63019;51.080;13.642;2023-04-03T05:55:11;0.00;99.90
74488;DHT22;63019;51.080;13.642;2023-04-03T05:56:14;0.10;99.90
74488;DHT22;63019;51.080;13.642;2023-04-03T05:57:16;0.10;99.90
74488;DHT22;63019;51.080;13.642;2023-04-03T05:58:17;0.10;99.90
74488;DHT22;63019;51.080;13.642;2023-04-03T05:59:20;0.10;99.90
74488;DHT22;63019;51.080;13.642;2023-04-03T06:00:22;0.00;99.90
74488;DHT22;63019;51.080;13.642;2023-04-03T06:01:24;0.00;99.90
74488;DHT22;63019;51.080;13.642;2023-04-03T06:02:26;0.10;99.90
74488;DHT22;63019;51.080;13.642;2023-04-03T06:03:28;0.10;99.90
74488;DHT22;63019;51.080;13.642;2023-04-03T06:04:30;0.00;99.90
74488;DHT22;63019;51.080;13.642;2023-04-03T06:05:32;0.00;99.90
74488;DHT22;63019;51.080;13.642;2023-04-03T06:06:48;0.00;99.90
74488;DHT22;63019;51.080;13.642;2023-04-03T06:07:50;0.00;99.90
74488;DHT22;63019;51.080;13.642;2023-04-03T06:08:52;0.00;99.90
74488;DHT22;63019;51.080;13.642;2023-04-03T06:09:56;0.00;99.90
74488;DHT22;63019;51.080;13.642;2023-04-03T06:10:58;0.00;99.90
74488;DHT22;63019;51.080;13.642;2023-04-03T06:11:59;0.00;99.90
74488;DHT22;63019;51.080;13.642;2023-04-03T06:13:01;0.00;99.90
74488;DHT22;63019;51.080;13.642;2023-04-03T06:14:03;0.00;99.90
74488;DHT22;63019;51.080;13.642;2023-04-03T06:15:05;0.00;99.90
74488;DHT22;63019;51.080;13.642;2023-04-03T06:16:12;0.00;99.90
74488;DHT22;63019;51.080;13.642;2023-04-03T06:17:17;0.00;99.90
74488;DHT22;63019;51.080;13.642;2023-04-03T06:18:20;0.00;99.90
74488;DHT22;63019;51.080;13.642;2023-04-03T06:19:22;0.10;99.90
74488;DHT22;63019;51.080;13.642;2023-04-03T06:20:24;0.10;99.90
74488;DHT22;63019;51.080;13.642;2023-04-03T06:21:26;0.00;99.90
74488;DHT22;63019;51.080;13.642;2023-04-03T06:22:28;0.10;99.90
74488;DHT22;63019;51.080;13.642;2023-04-03T06:23:31;0.00;99.90
74488;DHT22;63019;51.080;13.642;2023-04-03T06:24:34;0.10;99.90
74488;DHT22;63019;51.080;13.642;2023-04-03T06:25:37;0.10;99.90
74488;DHT22;63019;51.080;13.642;2023-04-03T06:26:38;0.10;99.90
74488;DHT22;63019;51.080;13.642;2023-04-03T06:27:40;0.10;99.90
74488;DHT22;63019;51.080;13.642;2023-04-03T06:28:42;0.10;99.90
74488;DHT22;63019;51.080;13.642;2023-04-03T06:29:44;0.10;99.90
74488;DHT22;63019;51.080;13.642;2023-04-03T06:30:46;0.20;99.90
74488;DHT22;63019;51.080;13.642;2023-04-03T06:31:49;0.20;99.90
74488;DHT22;63019;51.080;13.642;2023-04-03T06:32:51;0.20;99.90
74488;DHT22;63019;51.080;13.642;2023-04-03T06:33:53;0.20;99.90
74488;DHT22;63019;51.080;13.642;2023-04-03T06:34:55;0.20;99.90
74488;DHT22;63019;51.080;13.642;2023-04-03T06:35:58;0.20;99.90
74488;DHT22;63019;51.080;13.642;2023-04-03T06:37:00;0.20;99.90